createdAt,value
2023-05-12T00:00:25.952Z,57.19
2023-05-12T00:02:52.767Z,57.39
2023-05-12T00:05:19.595Z,57.12
2023-05-12T00:07:46.982Z,56.25
2023-05-12T00:10:14.605Z,54.68
2023-05-12T00:12:41.435Z,54.84
2023-05-12T00:15:08.857Z,54.36
2023-05-12T00:17:35.628Z,54.93
2023-05-12T00:20:03.773Z,55.27
2023-05-12T00:22:31.474Z,55.10
2023-05-12T00:24:58.215Z,54.33
2023-05-12T00:27:24.987Z,53.92
2023-05-12T00:29:51.750Z,53.14
2023-05-12T00:32:18.536Z,52.93
2023-05-12T00:34:45.306Z,52.28
2023-05-12T00:37:12.050Z,51.96
2023-05-12T00:39:38.822Z,51.77
2023-05-12T00:42:05.848Z,51.85
2023-05-12T00:44:32.943Z,52.01
2023-05-12T00:46:59.752Z,51.99
2023-05-12T00:49:27.483Z,52.62
2023-05-12T00:51:56.683Z,52.71
2023-05-12T00:54:23.598Z,52.79
2023-05-12T00:56:50.632Z,52.72
2023-05-12T00:59:18.407Z,54.83
2023-05-12T01:01:45.491Z,56.16
2023-05-12T01:04:13.394Z,57.26
2023-05-12T01:06:55.775Z,57.63
2023-05-12T01:09:22.770Z,56.90
2023-05-12T01:11:49.653Z,55.90
2023-05-12T01:14:18.489Z,56.43
2023-05-12T01:16:53.367Z,55.06
2023-05-12T01:19:41.441Z,54.48
2023-05-12T01:22:10.973Z,54.15
2023-05-12T01:24:51.354Z,53.85
2023-05-12T01:27:21.408Z,54.41
2023-05-12T01:29:49.797Z,53.42
2023-05-12T01:32:18.838Z,53.18
2023-05-12T01:34:46.719Z,53.69
2023-05-12T01:37:14.544Z,54.11
2023-05-12T01:39:41.699Z,54.24
2023-05-12T01:42:13.070Z,53.90
2023-05-12T01:44:39.931Z,54.10
2023-05-12T01:47:09.973Z,54.70
2023-05-12T01:49:38.458Z,55.05
2023-05-12T01:52:07.658Z,54.91
2023-05-12T01:54:34.486Z,55.23
2023-05-12T01:57:01.440Z,55.88
2023-05-12T01:59:28.424Z,56.40
2023-05-12T02:01:55.429Z,56.56
2023-05-12T02:04:28.644Z,57.22
2023-05-12T02:06:56.844Z,56.95
2023-05-12T02:09:24.195Z,56.63
2023-05-12T02:11:54.064Z,56.72
2023-05-12T02:14:20.989Z,56.70
2023-05-12T02:16:52.525Z,57.21
2023-05-12T02:19:21.167Z,57.06
2023-05-12T02:21:48.716Z,57.43
2023-05-12T02:24:16.623Z,57.62
2023-05-12T02:26:44.302Z,57.81
2023-05-12T02:29:12.668Z,57.83
2023-05-12T02:31:39.395Z,57.71
2023-05-12T02:34:15.363Z,57.71
2023-05-12T02:36:42.215Z,57.83
2023-05-12T02:39:09.108Z,57.69
2023-05-12T02:41:36.179Z,57.86
2023-05-12T02:44:03.004Z,57.64
2023-05-12T02:46:30.014Z,57.63
2023-05-12T02:48:57.369Z,57.75
2023-05-12T02:51:24.135Z,57.76
2023-05-12T02:53:50.943Z,57.68
2023-05-12T02:56:18.472Z,57.54
2023-05-12T02:58:45.869Z,57.38
2023-05-12T03:01:12.822Z,57.32
2023-05-12T03:03:41.401Z,57.22
2023-05-12T03:06:08.607Z,56.75
2023-05-12T03:08:36.236Z,56.38
2023-05-12T03:11:03.013Z,56.90
2023-05-12T03:13:29.724Z,57.10
2023-05-12T03:16:01.181Z,58.54
2023-05-12T03:18:29.164Z,60.15
2023-05-12T03:20:56.117Z,59.80
2023-05-12T03:23:24.578Z,60.34
2023-05-12T03:25:51.729Z,60.63
2023-05-12T03:28:18.693Z,61.35
2023-05-12T03:30:45.683Z,61.14
2023-05-12T03:33:12.529Z,61.34
2023-05-12T03:35:39.771Z,61.21
2023-05-12T03:38:06.723Z,61.44
2023-05-12T03:40:33.718Z,61.86
2023-05-12T03:43:00.473Z,62.93
2023-05-12T03:45:27.316Z,63.35
2023-05-12T03:47:54.113Z,63.38
2023-05-12T03:50:21.132Z,63.00
2023-05-12T03:52:48.069Z,62.68
2023-05-12T03:55:14.888Z,63.18
2023-05-12T03:57:42.847Z,63.07
2023-05-12T04:00:10.454Z,63.13
2023-05-12T04:02:43.497Z,63.22
2023-05-12T04:05:10.510Z,63.45
2023-05-12T04:07:37.464Z,63.40
2023-05-12T04:10:04.640Z,64.10
2023-05-12T04:12:31.464Z,64.57
2023-05-12T04:14:58.834Z,64.36
2023-05-12T04:17:25.616Z,64.54
2023-05-12T04:19:53.630Z,65.07
2023-05-12T04:22:20.893Z,65.17
2023-05-12T04:24:48.297Z,65.32
2023-05-12T04:27:15.250Z,65.20
2023-05-12T04:29:42.463Z,64.92
2023-05-12T04:32:09.423Z,65.23
2023-05-12T04:34:36.620Z,65.40
2023-05-12T04:37:03.823Z,65.14
2023-05-12T04:39:30.731Z,64.76
2023-05-12T04:41:59.770Z,64.44
2023-05-12T04:44:28.138Z,63.91
2023-05-12T04:46:56.586Z,63.88
2023-05-12T04:49:23.853Z,63.68
2023-05-12T04:51:50.777Z,63.56
2023-05-12T04:54:17.591Z,64.05
2023-05-12T04:56:44.358Z,63.93
2023-05-12T04:59:11.716Z,63.96
2023-05-12T05:01:39.614Z,63.95
2023-05-12T05:04:06.832Z,64.87
2023-05-12T05:06:33.597Z,64.53
2023-05-12T05:09:01.324Z,64.86
2023-05-12T05:11:28.812Z,64.06
2023-05-12T05:13:56.068Z,64.04
2023-05-12T05:16:24.303Z,65.28
2023-05-12T05:18:52.122Z,63.92
2023-05-12T05:21:19.114Z,63.79
2023-05-12T05:23:45.980Z,64.05
2023-05-12T05:26:12.903Z,63.59
2023-05-12T05:28:40.222Z,64.03
2023-05-12T05:31:08.294Z,63.24
2023-05-12T05:33:35.340Z,63.60
2023-05-12T05:36:03.257Z,63.31
2023-05-12T05:38:30.798Z,63.47
2023-05-12T05:40:57.752Z,63.66
2023-05-12T05:43:26.115Z,62.96
2023-05-12T05:45:53.719Z,62.44
2023-05-12T05:48:21.877Z,62.06
2023-05-12T05:50:49.096Z,62.19
2023-05-12T05:53:18.371Z,62.05
2023-05-12T05:55:45.989Z,62.04
2023-05-12T05:58:13.194Z,62.00
2023-05-12T06:00:40.070Z,61.72
2023-05-12T06:03:07.185Z,61.68
2023-05-12T06:05:34.269Z,61.43
2023-05-12T06:08:01.277Z,61.05
2023-05-12T06:10:28.220Z,61.14
2023-05-12T06:12:55.159Z,60.92
2023-05-12T06:15:22.279Z,61.14
2023-05-12T06:17:49.849Z,61.02
2023-05-12T06:20:16.809Z,60.77
2023-05-12T06:22:45.124Z,60.79
2023-05-12T06:25:12.120Z,60.68
2023-05-12T06:27:38.900Z,60.53
2023-05-12T06:30:07.333Z,60.18
2023-05-12T06:32:34.114Z,59.86
2023-05-12T06:35:03.577Z,59.49
2023-05-12T06:37:30.341Z,59.36
2023-05-12T06:39:57.114Z,59.02
2023-05-12T06:42:25.265Z,59.19
2023-05-12T06:44:52.239Z,59.01
2023-05-12T06:47:20.862Z,58.67
2023-05-12T06:49:50.079Z,58.34
2023-05-12T06:52:17.314Z,57.81
2023-05-12T06:54:44.030Z,57.38
2023-05-12T06:57:10.898Z,57.26
2023-05-12T06:59:37.676Z,56.87
2023-05-12T07:02:04.526Z,56.43
2023-05-12T07:04:31.380Z,55.96
2023-05-12T07:06:58.078Z,55.81
2023-05-12T07:09:24.796Z,55.86
2023-05-12T07:11:51.545Z,55.94
2023-05-12T07:14:18.340Z,56.15
2023-05-12T07:16:45.133Z,56.50
2023-05-12T07:19:11.957Z,56.26
2023-05-12T07:21:38.963Z,56.66
2023-05-12T07:24:06.396Z,56.00
2023-05-12T07:26:33.531Z,55.27
2023-05-12T07:29:01.145Z,55.29
2023-05-12T07:31:28.904Z,54.68
2023-05-12T07:33:55.922Z,54.46
2023-05-12T07:36:22.857Z,54.00
2023-05-12T07:38:49.927Z,53.05
2023-05-12T07:41:17.502Z,52.57
2023-05-12T07:43:44.531Z,52.42
2023-05-12T07:46:11.503Z,51.99
2023-05-12T07:48:40.342Z,52.16
2023-05-12T07:51:08.370Z,51.86
2023-05-12T07:53:35.558Z,51.63
2023-05-12T07:56:02.614Z,51.11
2023-05-12T07:58:29.973Z,51.00
2023-05-12T08:00:59.107Z,50.13
2023-05-12T08:03:26.329Z,50.34
2023-05-12T08:05:53.367Z,49.83
2023-05-12T08:08:20.112Z,50.28
2023-05-12T08:10:46.947Z,50.40
2023-05-12T08:13:13.760Z,49.66
2023-05-12T08:15:40.462Z,48.73
2023-05-12T08:18:07.220Z,49.02
2023-05-12T08:20:34.975Z,48.17
2023-05-12T08:23:01.820Z,47.93
2023-05-12T08:25:30.506Z,47.82
2023-05-12T08:27:59.371Z,47.69
2023-05-12T08:30:27.137Z,47.29
2023-05-12T08:32:55.155Z,46.86
2023-05-12T08:35:22.469Z,46.10
2023-05-12T08:37:49.442Z,45.56
2023-05-12T08:40:21.731Z,44.88
2023-05-12T08:42:57.972Z,44.91
2023-05-12T08:45:26.781Z,44.52
2023-05-12T08:47:54.592Z,44.35
2023-05-12T08:50:23.048Z,43.75
2023-05-12T08:52:50.075Z,44.04
2023-05-12T08:55:18.264Z,43.52
2023-05-12T08:57:48.428Z,43.34
2023-05-12T09:00:16.403Z,43.26
2023-05-12T09:02:53.254Z,43.03
2023-05-12T09:05:22.043Z,43.66
2023-05-12T09:07:50.411Z,43.50
2023-05-12T09:10:33.554Z,43.60
2023-05-12T09:13:13.951Z,44.13
2023-05-12T09:15:44.658Z,44.37
2023-05-12T09:18:11.448Z,44.79
2023-05-12T09:20:38.139Z,44.66
2023-05-12T09:23:18.023Z,45.34
2023-05-12T09:25:47.023Z,45.53
2023-05-12T09:28:14.598Z,46.09
2023-05-12T09:30:42.658Z,46.96
2023-05-12T09:33:12.903Z,47.16
2023-05-12T09:35:40.630Z,46.95
2023-05-12T09:38:09.089Z,46.73
2023-05-12T09:40:36.492Z,46.77
2023-05-12T09:43:07.375Z,47.10
2023-05-12T09:45:39.075Z,46.30
2023-05-12T09:48:18.362Z,45.91
2023-05-12T09:50:53.058Z,45.91
2023-05-12T09:53:20.568Z,46.03
2023-05-12T09:55:48.109Z,45.70
2023-05-12T09:58:16.816Z,46.77
2023-05-12T10:01:12.616Z,46.57
2023-05-12T10:03:33.443Z,47.00
2023-05-12T10:06:03.451Z,46.91
2023-05-12T10:08:36.763Z,47.83
2023-05-12T10:11:06.130Z,48.49
2023-05-12T10:13:33.993Z,48.36
2023-05-12T10:16:01.344Z,48.43
2023-05-12T10:18:28.469Z,47.83
2023-05-12T10:20:56.819Z,48.18
2023-05-12T10:23:27.243Z,47.92
2023-05-12T10:26:01.828Z,48.12
2023-05-12T10:28:29.588Z,47.74
2023-05-12T10:31:00.534Z,47.78
2023-05-12T10:33:27.786Z,47.75
2023-05-12T10:35:54.665Z,46.58
2023-05-12T10:38:21.704Z,46.51
2023-05-12T10:41:02.314Z,46.63
2023-05-12T10:43:37.895Z,47.09
2023-05-12T10:46:13.676Z,46.30
2023-05-12T10:49:02.356Z,45.96
2023-05-12T10:51:31.750Z,45.83
2023-05-12T10:54:02.495Z,45.78
2023-05-12T10:56:44.913Z,45.84
2023-05-12T10:59:15.212Z,45.94
2023-05-12T11:01:44.684Z,46.36
2023-05-12T11:04:16.801Z,46.25
2023-05-12T11:06:45.164Z,46.75
2023-05-12T11:09:13.586Z,46.63
2023-05-12T11:11:40.826Z,46.28
2023-05-12T11:14:08.577Z,46.38
2023-05-12T11:16:42.447Z,45.80
2023-05-12T11:19:09.437Z,45.33
2023-05-12T11:21:37.264Z,46.25
2023-05-12T11:24:04.482Z,46.17
2023-05-12T11:26:31.829Z,46.94
2023-05-12T11:28:59.326Z,47.15
2023-05-12T11:31:26.201Z,47.55
2023-05-12T11:34:12.680Z,47.45
2023-05-12T11:36:44.221Z,47.31
2023-05-12T11:39:20.839Z,47.53
2023-05-12T11:41:50.149Z,47.76
2023-05-12T11:44:24.112Z,47.44
2023-05-12T11:47:03.317Z,47.52
2023-05-12T11:49:31.666Z,47.57
2023-05-12T11:52:00.939Z,48.35
2023-05-12T11:54:31.242Z,48.86
2023-05-12T11:56:58.608Z,49.26
2023-05-12T11:59:33.358Z,50.69
2023-05-12T12:02:04.106Z,50.37
2023-05-12T12:04:41.705Z,51.25
2023-05-12T12:07:09.786Z,51.74
2023-05-12T12:09:41.089Z,52.41
2023-05-12T12:12:11.582Z,52.67
2023-05-12T12:14:38.787Z,53.92
2023-05-12T12:17:05.741Z,53.85
2023-05-12T12:19:32.559Z,54.08
2023-05-12T12:21:59.429Z,53.99
2023-05-12T12:24:26.547Z,53.41
2023-05-12T12:26:53.360Z,52.49
2023-05-12T12:29:20.134Z,52.21
2023-05-12T12:31:47.125Z,52.04
2023-05-12T12:34:14.008Z,52.49
2023-05-12T12:36:41.272Z,52.25
2023-05-12T12:39:08.209Z,53.12
2023-05-12T12:41:34.909Z,52.61
2023-05-12T12:44:01.703Z,52.85
2023-05-12T12:46:28.459Z,53.28
2023-05-12T12:48:57.260Z,54.23
2023-05-12T12:51:24.446Z,54.91
2023-05-12T12:53:51.340Z,54.90
2023-05-12T12:56:18.328Z,55.66
2023-05-12T12:58:45.168Z,55.72
2023-05-12T13:01:11.996Z,55.32
2023-05-12T13:03:38.913Z,54.99
2023-05-12T13:06:13.253Z,54.99
2023-05-12T13:08:40.815Z,54.93
2023-05-12T13:11:09.010Z,54.46
2023-05-12T13:13:37.764Z,54.78
2023-05-12T13:16:04.842Z,54.97
2023-05-12T13:18:31.783Z,55.31
2023-05-12T13:20:59.191Z,55.14
2023-05-12T13:23:26.019Z,54.67
2023-05-12T13:25:52.728Z,54.70
2023-05-12T13:28:19.455Z,54.81
2023-05-12T13:30:46.695Z,55.33
2023-05-12T13:33:13.679Z,56.10
2023-05-12T13:35:40.647Z,56.65
2023-05-12T13:38:07.463Z,56.89
2023-05-12T13:40:34.169Z,57.07
2023-05-12T13:43:00.910Z,57.36
2023-05-12T13:45:27.715Z,57.76
2023-05-12T13:47:54.659Z,57.35
2023-05-12T13:50:21.536Z,57.16
2023-05-12T13:52:48.406Z,57.17
2023-05-12T13:55:20.963Z,57.19
2023-05-12T13:57:48.983Z,57.10
2023-05-12T14:00:17.376Z,57.24
2023-05-12T14:02:44.284Z,57.34
2023-05-12T14:05:11.871Z,57.32
2023-05-12T14:07:38.682Z,57.35
2023-05-12T14:10:05.954Z,57.43
2023-05-12T14:12:32.694Z,57.47
2023-05-12T14:15:15.790Z,56.99
2023-05-12T14:17:46.875Z,56.31
2023-05-12T14:20:14.238Z,56.16
2023-05-12T14:22:41.909Z,55.92
2023-05-12T14:25:09.021Z,55.77
2023-05-12T14:27:35.763Z,55.19
2023-05-12T14:30:02.860Z,55.23
2023-05-12T14:32:30.052Z,55.36
2023-05-12T14:34:57.249Z,55.09
2023-05-12T14:37:24.110Z,54.89
2023-05-12T14:39:51.003Z,55.05
2023-05-12T14:42:18.570Z,55.19
2023-05-12T14:44:45.362Z,52.68
2023-05-12T14:47:12.090Z,53.27
2023-05-12T14:49:38.861Z,53.08
2023-05-12T14:52:06.539Z,56.22
2023-05-12T14:54:33.693Z,58.21
2023-05-12T14:57:00.494Z,59.91
2023-05-12T14:59:29.488Z,62.99
2023-05-12T15:01:56.192Z,64.09
2023-05-12T15:04:23.611Z,65.88
2023-05-12T15:06:50.426Z,66.93
2023-05-12T15:09:17.348Z,66.72
2023-05-12T15:11:46.948Z,66.33
2023-05-12T15:14:13.916Z,66.73
2023-05-12T15:16:41.178Z,67.96
2023-05-12T15:19:08.835Z,68.28
2023-05-12T15:21:36.858Z,67.93
2023-05-12T15:24:04.094Z,69.62
2023-05-12T15:26:33.825Z,69.82
2023-05-12T15:29:02.209Z,68.43
2023-05-12T15:31:30.250Z,69.25
2023-05-12T15:33:57.769Z,69.29
2023-05-12T15:36:24.671Z,67.81
2023-05-12T15:38:51.438Z,68.13
2023-05-12T15:41:18.387Z,66.63
2023-05-12T15:43:45.151Z,67.74
2023-05-12T15:46:11.992Z,67.53
2023-05-12T15:48:39.530Z,67.48
2023-05-12T15:51:06.944Z,65.33
2023-05-12T15:53:34.198Z,66.39
2023-05-12T15:56:01.830Z,67.39
2023-05-12T15:58:28.868Z,67.29
2023-05-12T16:00:56.111Z,69.73
2023-05-12T16:03:23.886Z,70.11
2023-05-12T16:05:51.272Z,70.17
2023-05-12T16:08:18.425Z,69.81
2023-05-12T16:10:45.237Z,69.69
2023-05-12T16:13:11.983Z,68.77
2023-05-12T16:15:38.693Z,68.97
2023-05-12T16:18:09.124Z,69.23
2023-05-12T16:20:37.892Z,69.01
2023-05-12T16:23:04.774Z,67.06
2023-05-12T16:25:31.525Z,67.45
2023-05-12T16:27:58.273Z,68.44
2023-05-12T16:30:25.152Z,67.48
2023-05-12T16:32:52.025Z,66.11
2023-05-12T16:35:19.491Z,67.74
2023-05-12T16:37:46.658Z,68.07
2023-05-12T16:40:14.759Z,66.83
2023-05-12T16:42:42.659Z,66.98
2023-05-12T16:45:10.969Z,66.86
2023-05-12T16:47:37.927Z,67.36
2023-05-12T16:50:05.463Z,67.40
2023-05-12T16:52:32.208Z,67.53
2023-05-12T16:54:58.973Z,67.46
2023-05-12T16:57:26.131Z,67.55
2023-05-12T16:59:52.892Z,67.27
2023-05-12T17:02:19.782Z,66.39
2023-05-12T17:04:46.776Z,65.94
2023-05-12T17:07:13.657Z,64.41
2023-05-12T17:09:40.668Z,64.33
2023-05-12T17:12:08.516Z,66.06
2023-05-12T17:14:35.389Z,66.51
2023-05-12T17:17:02.467Z,67.21
2023-05-12T17:19:29.623Z,65.05
2023-05-12T17:21:56.622Z,67.27
2023-05-12T17:24:23.347Z,67.26
2023-05-12T17:26:50.587Z,67.76
2023-05-12T17:29:17.790Z,68.78
2023-05-12T17:31:44.734Z,69.22
2023-05-12T17:34:11.553Z,69.00
2023-05-12T17:36:38.405Z,69.22
2023-05-12T17:39:05.860Z,70.20
2023-05-12T17:41:32.729Z,69.72
2023-05-12T17:43:59.478Z,69.96
2023-05-12T17:46:26.323Z,69.87
2023-05-12T17:48:53.169Z,70.55
2023-05-12T17:51:20.052Z,69.28
2023-05-12T17:53:46.788Z,69.22
2023-05-12T17:56:13.566Z,70.26
2023-05-12T17:58:40.303Z,68.49
2023-05-12T18:01:07.062Z,68.95
2023-05-12T18:03:35.094Z,68.59
2023-05-12T18:06:02.705Z,69.10
2023-05-12T18:08:29.531Z,68.86
2023-05-12T18:10:56.591Z,69.21
2023-05-12T18:13:23.427Z,69.71
2023-05-12T18:15:50.363Z,69.80
2023-05-12T18:18:17.272Z,69.60
2023-05-12T18:20:44.057Z,69.25
2023-05-12T18:23:10.815Z,69.86
2023-05-12T18:25:37.920Z,68.15
2023-05-12T18:28:06.629Z,68.03
2023-05-12T18:30:33.607Z,67.90
2023-05-12T18:33:00.504Z,68.44
2023-05-12T18:35:27.566Z,69.60
2023-05-12T18:37:54.580Z,70.35
2023-05-12T18:40:21.462Z,70.39
2023-05-12T18:42:48.330Z,70.88
2023-05-12T18:45:15.730Z,71.15
2023-05-12T18:47:42.642Z,70.64
2023-05-12T18:50:09.903Z,70.75
2023-05-12T18:52:36.913Z,71.23
2023-05-12T18:55:03.985Z,70.84
2023-05-12T18:57:30.752Z,70.98
2023-05-12T18:59:57.439Z,71.13
2023-05-12T19:02:24.314Z,71.18
2023-05-12T19:04:52.103Z,71.31
2023-05-12T19:07:19.417Z,70.85
2023-05-12T19:09:49.290Z,70.68
2023-05-12T19:12:16.159Z,70.41
2023-05-12T19:14:43.270Z,70.50
2023-05-12T19:17:10.818Z,70.38
2023-05-12T19:19:38.375Z,70.46
2023-05-12T19:22:05.273Z,70.20
2023-05-12T19:24:32.078Z,70.58
2023-05-12T19:26:59.365Z,70.51
2023-05-12T19:29:26.235Z,70.64
2023-05-12T19:31:53.257Z,70.64
2023-05-12T19:34:20.568Z,70.29
2023-05-12T19:36:47.879Z,70.43
2023-05-12T19:39:14.623Z,70.18
2023-05-12T19:41:41.440Z,70.09
2023-05-12T19:44:08.255Z,70.36
2023-05-12T19:46:35.189Z,71.01
2023-05-12T19:49:02.371Z,70.95
2023-05-12T19:51:29.429Z,70.29
2023-05-12T19:53:56.217Z,70.20
2023-05-12T19:56:23.146Z,70.55
2023-05-12T19:58:49.847Z,70.15
2023-05-12T20:01:16.674Z,69.97
2023-05-12T20:03:43.624Z,69.69
2023-05-12T20:06:10.877Z,70.00
2023-05-12T20:08:38.026Z,69.67
2023-05-12T20:11:04.778Z,70.17
2023-05-12T20:13:31.862Z,70.52
2023-05-12T20:15:59.050Z,70.71
2023-05-12T20:18:26.010Z,70.74
2023-05-12T20:20:52.837Z,71.10
2023-05-12T20:23:19.633Z,71.02
2023-05-12T20:25:46.741Z,70.67
2023-05-12T20:28:14.042Z,70.85
2023-05-12T20:30:41.043Z,70.85
2023-05-12T20:33:08.020Z,70.94
2023-05-12T20:35:34.911Z,70.70
2023-05-12T20:38:01.726Z,70.55
2023-05-12T20:40:28.623Z,69.73
2023-05-12T20:42:55.586Z,70.01
2023-05-12T20:45:22.542Z,69.43
2023-05-12T20:47:49.624Z,68.98
2023-05-12T20:50:17.109Z,68.98
2023-05-12T20:52:46.205Z,68.99
2023-05-12T20:55:13.058Z,69.39
2023-05-12T20:57:40.261Z,69.80
2023-05-12T21:00:11.243Z,70.49
2023-05-12T21:02:38.458Z,70.72
2023-05-12T21:05:05.920Z,71.11
2023-05-12T21:07:33.300Z,71.21
2023-05-12T21:10:00.547Z,71.14
2023-05-12T21:12:27.904Z,71.25
2023-05-12T21:14:54.931Z,71.22
2023-05-12T21:17:21.946Z,71.17
2023-05-12T21:19:48.726Z,70.77
2023-05-12T21:22:15.743Z,70.92
2023-05-12T21:24:42.928Z,70.78
2023-05-12T21:27:10.127Z,71.22
2023-05-12T21:29:36.926Z,71.25
2023-05-12T21:32:07.202Z,71.72
2023-05-12T21:34:35.883Z,72.06
2023-05-12T21:37:02.792Z,72.84
2023-05-12T21:39:29.560Z,72.65
2023-05-12T21:41:56.386Z,72.85
2023-05-12T21:44:23.207Z,72.51
2023-05-12T21:46:49.962Z,72.95
2023-05-12T21:49:16.777Z,72.77
2023-05-12T21:51:43.488Z,72.61
2023-05-12T21:54:10.295Z,72.42
2023-05-12T21:56:37.035Z,72.23
2023-05-12T21:59:03.780Z,72.19
2023-05-12T22:01:39.876Z,72.29
2023-05-12T22:04:07.076Z,72.22
2023-05-12T22:06:34.047Z,72.15
2023-05-12T22:09:00.813Z,72.11
2023-05-12T22:11:27.580Z,72.39
2023-05-12T22:13:54.279Z,72.53
2023-05-12T22:16:25.695Z,72.94
2023-05-12T22:18:55.466Z,72.70
2023-05-12T22:21:22.332Z,72.89
2023-05-12T22:23:49.029Z,72.90
2023-05-12T22:26:15.787Z,73.15
2023-05-12T22:28:42.749Z,73.16
2023-05-12T22:31:09.532Z,73.66
2023-05-12T22:33:36.276Z,74.06
2023-05-12T22:36:03.266Z,73.67
2023-05-12T22:38:30.006Z,73.63
2023-05-12T22:40:56.846Z,73.46
2023-05-12T22:43:23.626Z,73.80
2023-05-12T22:45:55.705Z,73.79
2023-05-12T22:48:22.809Z,73.81
2023-05-12T22:50:53.266Z,73.77
2023-05-12T22:53:22.796Z,73.65
2023-05-12T22:55:49.548Z,73.55
2023-05-12T22:58:16.457Z,73.66
2023-05-12T23:00:43.302Z,73.52
2023-05-12T23:03:10.152Z,73.27
2023-05-12T23:05:36.895Z,73.16
2023-05-12T23:08:03.665Z,73.32
2023-05-12T23:10:30.748Z,73.60
2023-05-12T23:12:57.574Z,73.36
2023-05-12T23:15:24.574Z,73.17
2023-05-12T23:17:51.415Z,73.02
2023-05-12T23:20:18.428Z,72.85
2023-05-12T23:22:46.056Z,73.36
2023-05-12T23:25:13.078Z,73.37
2023-05-12T23:27:40.013Z,73.84
2023-05-12T23:30:07.369Z,73.99
2023-05-12T23:32:34.309Z,74.38
2023-05-12T23:35:01.137Z,74.63
2023-05-12T23:37:27.968Z,74.93
2023-05-12T23:39:54.766Z,75.10
2023-05-12T23:42:21.647Z,75.47
2023-05-12T23:44:48.379Z,75.16
2023-05-12T23:47:15.146Z,75.15
2023-05-12T23:49:42.084Z,75.19
2023-05-12T23:52:08.866Z,74.99
2023-05-12T23:54:35.796Z,75.21
2023-05-12T23:57:03.182Z,75.42
2023-05-12T23:59:29.941Z,75.43
